Time,TemperatureF,DewpointF,PressureIn,WindDirection,WindDirectionDegrees,WindSpeedMPH,WindSpeedGustMPH,Humidity,HourlyPrecipIn,Conditions,Clouds,dailyrainin,SoftwareType,DateUTC
2013-10-23 00:00:00,52.2,47.5,29.60,NW,315,0.0,0.0,84,0.00,,,0.00,WeatherDisplay:10.37,2013-10-23 04:00:00,
2013-10-23 00:01:00,52.2,47.5,29.60,NW,315,0.0,0.0,84,0.00,,,0.00,WeatherDisplay:10.37,2013-10-23 04:01:00,
2013-10-23 00:02:00,52.2,47.5,29.60,NW,315,0.0,0.0,84,0.00,,,0.00,WeatherDisplay:10.37,2013-10-23 04:02:00,
2013-10-23 00:04:00,52.2,47.5,29.60,NW,315,0.0,0.0,84,0.00,,,0.00,WeatherDisplay:10.37,2013-10-23 04:04:00,
2013-10-23 00:09:00,52.2,47.5,29.59,NW,315,0.0,0.0,84,0.00,,,0.00,WeatherDisplay:10.37,2013-10-23 04:09:00,
2013-10-23 00:14:00,52.0,47.3,29.59,NW,315,0.0,0.0,84,0.00,,,0.00,WeatherDisplay:10.37,2013-10-23 04:14:00,
2013-10-23 00:19:00,52.0,47.3,29.59,NW,315,0.0,0.0,84,0.00,,,0.00,WeatherDisplay:10.37,2013-10-23 04:19:00,
2013-10-23 00:24:00,51.8,47.4,29.59,NW,315,0.0,0.0,85,0.00,,,0.00,WeatherDisplay:10.37,2013-10-23 04:24:00,
2013-10-23 00:29:00,51.8,47.4,29.59,NW,315,0.0,0.0,85,0.00,,,0.00,WeatherDisplay:10.37,2013-10-23 04:29:00,
2013-10-23 00:34:00,51.8,47.4,29.59,NW,315,0.0,0.0,85,0.00,,,0.00,WeatherDisplay:10.37,2013-10-23 04:34:00,
2013-10-23 00:39:00,51.8,47.4,29.58,NW,315,0.0,0.0,85,0.00,,,0.00,WeatherDisplay:10.37,2013-10-23 04:39:00,
2013-10-23 00:44:00,51.6,47.3,29.58,NW,315,0.0,0.0,85,0.00,,,0.00,WeatherDisplay:10.37,2013-10-23 04:44:00,
2013-10-23 00:49:00,51.6,47.3,29.58,NW,315,0.0,0.0,85,0.00,,,0.00,WeatherDisplay:10.37,2013-10-23 04:49:00,
2013-10-23 00:54:00,51.6,47.3,29.58,NW,315,0.0,0.0,85,0.00,,,0.00,WeatherDisplay:10.37,2013-10-23 04:54:00,
2013-10-23 00:59:00,51.4,47.1,29.58,NW,315,0.0,0.0,85,0.00,,,0.00,WeatherDisplay:10.37,2013-10-23 04:59:00,
2013-10-23 01:04:00,51.1,46.7,29.57,NW,315,0.0,0.0,85,0.00,,,0.00,WeatherDisplay:10.37,2013-10-23 05:04:00,
2013-10-23 01:09:00,50.9,46.6,29.58,NW,315,0.0,0.0,85,0.00,,,0.00,WeatherDisplay:10.37,2013-10-23 05:09:00,
2013-10-23 01:14:00,50.7,46.4,29.57,NW,315,0.0,0.0,85,0.00,,,0.00,WeatherDisplay:10.37,2013-10-23 05:14:00,
2013-10-23 01:19:00,50.7,46.4,29.57,NW,315,0.0,0.0,85,0.00,,,0.00,WeatherDisplay:10.37,2013-10-23 05:19:00,
2013-10-23 01:24:00,50.7,46.4,29.57,NW,315,0.0,0.0,85,0.00,,,0.00,WeatherDisplay:10.37,2013-10-23 05:24:00,
2013-10-23 01:29:00,50.7,46.4,29.57,NW,315,0.0,0.0,85,0.00,,,0.00,WeatherDisplay:10.37,2013-10-23 05:29:00,
2013-10-23 01:34:00,50.7,46.4,29.57,NW,315,0.0,0.0,85,0.00,,,0.00,WeatherDisplay:10.37,2013-10-23 05:34:00,
2013-10-23 01:39:00,50.5,46.2,29.57,NW,315,0.0,0.0,85,0.00,,,0.00,WeatherDisplay:10.37,2013-10-23 05:39:00,
2013-10-23 01:44:00,50.5,46.2,29.57,NW,315,0.0,0.0,85,0.00,,,0.00,WeatherDisplay:10.37,2013-10-23 05:44:00,
2013-10-23 01:49:00,50.4,46.0,29.57,NW,315,0.0,0.0,85,0.00,,,0.00,WeatherDisplay:10.37,2013-10-23 05:49:00,
2013-10-23 01:54:00,50.5,46.2,29.57,NW,315,0.0,0.0,85,0.00,,,0.00,WeatherDisplay:10.37,2013-10-23 05:54:00,
2013-10-23 01:59:00,50.5,46.2,29.57,NW,315,0.0,0.0,85,0.00,,,0.00,WeatherDisplay:10.37,2013-10-23 05:59:00,
2013-10-23 02:04:00,50.4,46.0,29.56,NW,315,0.0,0.0,85,0.00,,,0.00,WeatherDisplay:10.37,2013-10-23 06:04:00,
2013-10-23 02:09:00,50.1,45.8,29.56,NW,315,0.0,0.0,85,0.00,,,0.00,WeatherDisplay:10.37,2013-10-23 06:09:00,
2013-10-23 02:14:00,49.8,45.5,29.56,NW,315,0.0,0.0,85,0.00,,,0.00,WeatherDisplay:10.37,2013-10-23 06:14:00,
2013-10-23 02:19:00,49.6,45.3,29.56,NW,315,0.0,0.0,85,0.00,,,0.00,WeatherDisplay:10.37,2013-10-23 06:19:00,
2013-10-23 02:24:00,49.4,45.1,29.56,NW,320,0.0,0.0,85,0.00,,,0.00,WeatherDisplay:10.37,2013-10-23 06:24:00,
2013-10-23 02:29:00,49.3,45.0,29.55,NNW,339,0.0,0.0,85,0.00,,,0.00,WeatherDisplay:10.37,2013-10-23 06:29:00,
2013-10-23 02:35:00,49.3,45.0,29.55,North,0,0.0,0.0,85,0.00,,,0.00,WeatherDisplay:10.37,2013-10-23 06:35:00,
2013-10-23 02:40:00,49.3,45.0,29.56,North,0,0.0,0.0,85,0.00,,,0.00,WeatherDisplay:10.37,2013-10-23 06:40:00,
2013-10-23 02:45:00,49.3,45.0,29.56,North,0,0.0,0.0,85,0.00,,,0.00,WeatherDisplay:10.37,2013-10-23 06:45:00,
2013-10-23 02:50:00,49.6,45.0,29.56,North,0,0.0,0.0,84,0.00,,,0.00,WeatherDisplay:10.37,2013-10-23 06:50:00,
2013-10-23 02:55:00,49.3,44.6,29.55,North,0,0.0,0.0,84,0.00,,,0.00,WeatherDisplay:10.37,2013-10-23 06:55:00,
2013-10-23 03:00:00,49.3,44.6,29.55,NW,315,0.0,0.0,84,0.00,,,0.00,WeatherDisplay:10.37,2013-10-23 07:00:00,
2013-10-23 03:05:00,49.1,44.5,29.55,NE,45,0.0,0.0,84,0.00,,,0.00,WeatherDisplay:10.37,2013-10-23 07:05:00,
2013-10-23 03:10:00,48.9,44.3,29.54,NNE,22,0.0,0.0,84,0.00,,,0.00,WeatherDisplay:10.37,2013-10-23 07:10:00,
2013-10-23 03:15:00,49.1,44.5,29.55,ENE,68,0.0,0.0,84,0.00,,,0.00,WeatherDisplay:10.37,2013-10-23 07:15:00,
2013-10-23 03:20:00,49.3,44.6,29.54,SSW,202,0.0,0.0,84,0.00,,,0.00,WeatherDisplay:10.37,2013-10-23 07:20:00,
2013-10-23 03:25:00,49.3,44.6,29.55,SE,135,0.0,0.0,84,0.00,,,0.00,WeatherDisplay:10.37,2013-10-23 07:25:00,
2013-10-23 03:30:00,48.9,44.3,29.55,North,0,0.0,0.0,84,0.00,,,0.00,WeatherDisplay:10.37,2013-10-23 07:30:00,
2013-10-23 03:35:00,48.7,44.1,29.55,WNW,292,0.0,0.0,84,0.00,,,0.00,WeatherDisplay:10.37,2013-10-23 07:35:00,
2013-10-23 03:40:00,48.7,44.1,29.54,NE,45,0.0,0.0,84,0.00,,,0.00,WeatherDisplay:10.37,2013-10-23 07:40:00,
2013-10-23 03:45:00,48.6,43.9,29.54,NE,45,0.0,0.0,84,0.00,,,0.00,WeatherDisplay:10.37,2013-10-23 07:45:00,
2013-10-23 03:50:00,48.6,43.6,29.54,NE,45,0.0,0.0,83,0.00,,,0.00,WeatherDisplay:10.37,2013-10-23 07:50:00,
2013-10-23 03:55:00,48.7,43.8,29.55,North,0,0.0,0.0,83,0.00,,,0.00,WeatherDisplay:10.37,2013-10-23 07:55:00,
2013-10-23 04:00:00,48.9,43.3,29.55,ESE,112,0.0,0.0,81,0.00,,,0.00,WeatherDisplay:10.37,2013-10-23 08:00:00,
2013-10-23 04:05:00,49.1,43.8,29.54,ESE,112,0.0,0.0,82,0.00,,,0.00,WeatherDisplay:10.37,2013-10-23 08:05:00,
2013-10-23 04:10:00,49.1,43.8,29.54,NE,45,0.0,0.0,82,0.00,,,0.00,WeatherDisplay:10.37,2013-10-23 08:10:00,
2013-10-23 04:15:00,48.9,43.7,29.54,ENE,68,0.0,0.0,82,0.00,,,0.00,WeatherDisplay:10.37,2013-10-23 08:15:00,
2013-10-23 04:20:00,48.7,43.5,29.54,ENE,68,0.0,0.0,82,0.00,,,0.00,WeatherDisplay:10.37,2013-10-23 08:20:00,
2013-10-23 04:25:00,48.6,43.6,29.54,ENE,68,0.0,0.0,83,0.00,,,0.00,WeatherDisplay:10.37,2013-10-23 08:25:00,
2013-10-23 04:30:00,48.4,43.5,29.54,South,180,0.0,0.0,83,0.00,,,0.00,WeatherDisplay:10.37,2013-10-23 08:30:00,
2013-10-23 04:35:00,48.2,43.3,29.54,South,180,0.0,0.0,83,0.00,,,0.00,WeatherDisplay:10.37,2013-10-23 08:35:00,
2013-10-23 04:40:00,48.0,43.1,29.54,South,180,0.0,0.0,83,0.00,,,0.00,WeatherDisplay:10.37,2013-10-23 08:40:00,
2013-10-23 04:45:00,48.0,43.1,29.54,South,180,0.0,0.0,83,0.00,,,0.00,WeatherDisplay:10.37,2013-10-23 08:45:00,
2013-10-23 04:50:00,47.8,42.9,29.54,South,180,0.0,0.0,83,0.00,,,0.00,WeatherDisplay:10.37,2013-10-23 08:50:00,
2013-10-23 04:55:00,47.5,42.6,29.53,South,180,0.0,0.0,83,0.00,,,0.00,WeatherDisplay:10.37,2013-10-23 08:55:00,
2013-10-23 05:00:00,47.5,42.6,29.53,South,180,0.0,0.0,83,0.00,,,0.00,WeatherDisplay:10.37,2013-10-23 09:00:00,
2013-10-23 05:05:00,47.3,42.4,29.54,South,180,0.0,0.0,83,0.00,,,0.00,WeatherDisplay:10.37,2013-10-23 09:05:00,
2013-10-23 05:10:00,47.3,42.4,29.54,South,180,0.0,0.0,83,0.00,,,0.00,WeatherDisplay:10.37,2013-10-23 09:10:00,
2013-10-23 05:15:00,47.3,42.4,29.54,SSE,158,0.0,0.0,83,0.00,,,0.00,WeatherDisplay:10.37,2013-10-23 09:15:00,
2013-10-23 05:20:00,47.1,42.2,29.54,SSE,158,0.0,0.0,83,0.00,,,0.00,WeatherDisplay:10.37,2013-10-23 09:20:00,
2013-10-23 05:25:00,46.8,41.9,29.54,SSE,158,0.0,0.0,83,0.00,,,0.00,WeatherDisplay:10.37,2013-10-23 09:25:00,
2013-10-23 05:30:00,46.8,41.9,29.54,SSE,158,0.0,0.0,83,0.00,,,0.00,WeatherDisplay:10.37,2013-10-23 09:30:00,
2013-10-23 05:35:00,46.9,42.0,29.54,ENE,68,0.0,0.0,83,0.00,,,0.00,WeatherDisplay:10.37,2013-10-23 09:35:00,
2013-10-23 05:40:00,46.9,42.0,29.53,NE,45,0.0,0.0,83,0.00,,,0.00,WeatherDisplay:10.37,2013-10-23 09:40:00,
2013-10-23 05:45:00,47.1,42.2,29.54,NE,45,0.0,0.0,83,0.00,,,0.00,WeatherDisplay:10.37,2013-10-23 09:45:00,
2013-10-23 05:50:00,47.1,42.2,29.54,NE,45,0.0,0.0,83,0.00,,,0.00,WeatherDisplay:10.37,2013-10-23 09:50:00,
2013-10-23 05:55:00,47.1,42.2,29.54,NE,45,0.0,0.0,83,0.00,,,0.00,WeatherDisplay:10.37,2013-10-23 09:55:00,
2013-10-23 06:00:00,47.3,42.4,29.54,NE,45,0.0,0.0,83,0.00,,,0.00,WeatherDisplay:10.37,2013-10-23 10:00:00,
2013-10-23 06:05:00,47.5,42.6,29.54,NE,45,0.0,0.0,83,0.00,,,0.00,WeatherDisplay:10.37,2013-10-23 10:05:00,
2013-10-23 06:10:00,47.3,42.1,29.54,NE,45,0.0,0.0,82,0.00,,,0.00,WeatherDisplay:10.37,2013-10-23 10:10:00,
2013-10-23 06:15:00,47.1,42.2,29.54,NE,45,0.0,0.0,83,0.00,,,0.00,WeatherDisplay:10.37,2013-10-23 10:15:00,
2013-10-23 06:20:00,46.9,42.0,29.53,NE,45,0.0,0.0,83,0.00,,,0.00,WeatherDisplay:10.37,2013-10-23 10:20:00,
2013-10-23 06:25:00,46.9,42.0,29.54,NNE,22,0.0,0.0,83,0.00,,,0.00,WeatherDisplay:10.37,2013-10-23 10:25:00,
2013-10-23 06:30:00,46.6,41.7,29.54,NNE,22,0.0,0.0,83,0.00,,,0.00,WeatherDisplay:10.37,2013-10-23 10:30:00,
2013-10-23 06:35:00,46.6,41.7,29.54,NNE,22,0.0,0.0,83,0.00,,,0.00,WeatherDisplay:10.37,2013-10-23 10:35:00,
2013-10-23 06:40:00,46.6,41.7,29.53,NNE,22,0.0,0.0,83,0.00,,,0.00,WeatherDisplay:10.37,2013-10-23 10:40:00,
2013-10-23 06:45:00,46.6,41.7,29.54,NNE,22,0.0,0.0,83,0.00,,,0.00,WeatherDisplay:10.37,2013-10-23 10:45:00,
2013-10-23 06:50:00,46.6,41.7,29.54,NNE,22,0.0,0.0,83,0.00,,,0.00,WeatherDisplay:10.37,2013-10-23 10:50:00,
2013-10-23 06:55:00,46.2,41.3,29.54,NNE,22,0.0,0.0,83,0.00,,,0.00,WeatherDisplay:10.37,2013-10-23 10:55:00,
2013-10-23 07:00:00,46.0,41.2,29.54,NNE,22,0.0,0.0,83,0.00,,,0.00,WeatherDisplay:10.37,2013-10-23 11:00:00,
2013-10-23 07:05:00,45.7,40.8,29.54,NNE,22,0.0,0.0,83,0.00,,,0.00,WeatherDisplay:10.37,2013-10-23 11:05:00,
2013-10-23 07:10:00,45.5,40.6,29.54,NNE,22,0.0,0.0,83,0.00,,,0.00,WeatherDisplay:10.37,2013-10-23 11:10:00,
2013-10-23 07:15:00,45.3,40.1,29.54,NNE,22,0.0,0.0,82,0.00,,,0.00,WeatherDisplay:10.37,2013-10-23 11:15:00,
2013-10-23 07:20:00,45.3,40.1,29.54,NNE,22,0.0,0.0,82,0.00,,,0.00,WeatherDisplay:10.37,2013-10-23 11:20:00,
2013-10-23 07:25:00,45.1,40.0,29.54,NNE,22,0.0,0.0,82,0.00,,,0.00,WeatherDisplay:10.37,2013-10-23 11:25:00,
2013-10-23 07:30:00,45.1,40.3,29.54,NNE,22,0.0,0.0,83,0.00,,,0.00,WeatherDisplay:10.37,2013-10-23 11:30:00,
2013-10-23 07:35:00,44.8,39.9,29.54,NNE,22,0.0,0.0,83,0.00,,,0.00,WeatherDisplay:10.37,2013-10-23 11:35:00,
2013-10-23 07:40:00,44.8,39.9,29.54,NNE,22,0.0,0.0,83,0.00,,,0.00,WeatherDisplay:10.37,2013-10-23 11:40:00,
2013-10-23 07:45:00,44.8,39.9,29.54,NNE,22,0.0,0.0,83,0.00,,,0.00,WeatherDisplay:10.37,2013-10-23 11:45:00,
2013-10-23 07:50:00,44.6,39.8,29.54,NNE,22,0.0,0.0,83,0.00,,,0.00,WeatherDisplay:10.37,2013-10-23 11:50:00,
2013-10-23 07:55:00,44.8,39.9,29.54,NNE,22,0.0,0.0,83,0.00,,,0.00,WeatherDisplay:10.37,2013-10-23 11:55:00,
2013-10-23 08:00:00,44.8,39.9,29.54,NNE,22,0.0,0.0,83,0.00,,,0.00,WeatherDisplay:10.37,2013-10-23 12:00:00,
2013-10-23 08:05:00,44.8,39.9,29.54,NNE,22,0.0,0.0,83,0.00,,,0.00,WeatherDisplay:10.37,2013-10-23 12:05:00,
2013-10-23 08:10:00,45.0,40.1,29.55,North,0,0.0,0.0,83,0.00,,,0.00,WeatherDisplay:10.37,2013-10-23 12:10:00,
2013-10-23 08:15:00,45.3,40.5,29.54,North,0,0.0,0.0,83,0.00,,,0.00,WeatherDisplay:10.37,2013-10-23 12:15:00,
2013-10-23 08:20:00,45.5,40.6,29.55,SSE,158,0.0,0.0,83,0.00,,,0.00,WeatherDisplay:10.37,2013-10-23 12:20:00,
2013-10-23 08:25:00,46.0,41.2,29.55,SSE,158,0.0,0.0,83,0.00,,,0.00,WeatherDisplay:10.37,2013-10-23 12:25:00,
2013-10-23 08:30:00,46.2,41.3,29.54,SSE,158,0.0,0.0,83,0.00,,,0.00,WeatherDisplay:10.37,2013-10-23 12:30:00,
2013-10-23 08:35:00,46.4,41.5,29.55,SSE,158,0.0,0.0,83,0.00,,,0.00,WeatherDisplay:10.37,2013-10-23 12:35:00,
2013-10-23 08:40:00,46.8,41.9,29.55,SSE,158,0.0,0.0,83,0.00,,,0.00,WeatherDisplay:10.37,2013-10-23 12:40:00,
2013-10-23 08:45:00,46.9,41.7,29.55,SSE,158,0.0,0.0,82,0.00,,,0.00,WeatherDisplay:10.37,2013-10-23 12:45:00,
2013-10-23 08:50:00,46.9,41.7,29.54,SSE,158,0.0,0.0,82,0.00,,,0.00,WeatherDisplay:10.37,2013-10-23 12:50:00,
2013-10-23 08:55:00,46.9,41.7,29.55,SSE,158,0.0,0.0,82,0.00,,,0.00,WeatherDisplay:10.37,2013-10-23 12:55:00,
2013-10-23 09:00:00,46.9,41.7,29.55,South,180,0.0,0.0,82,0.00,,,0.00,WeatherDisplay:10.37,2013-10-23 13:00:00,
2013-10-23 09:05:00,46.9,41.7,29.54,NE,45,0.0,0.0,82,0.00,,,0.00,WeatherDisplay:10.37,2013-10-23 13:05:00,
2013-10-23 09:10:00,46.8,41.6,29.54,WNW,292,0.0,0.0,82,0.00,,,0.00,WeatherDisplay:10.37,2013-10-23 13:10:00,
2013-10-23 09:15:00,46.8,41.6,29.55,NW,315,0.0,0.0,82,0.00,,,0.00,WeatherDisplay:10.37,2013-10-23 13:15:00,
2013-10-23 09:20:00,46.8,41.6,29.56,SSW,202,0.0,0.0,82,0.00,,,0.00,WeatherDisplay:10.37,2013-10-23 13:20:00,
2013-10-23 09:25:00,47.1,41.9,29.55,NNE,22,0.0,0.0,82,0.00,,,0.00,WeatherDisplay:10.37,2013-10-23 13:25:00,
2013-10-23 09:30:00,47.5,41.6,29.55,SSW,202,0.0,0.0,80,0.00,,,0.00,WeatherDisplay:10.37,2013-10-23 13:30:00,
2013-10-23 09:35:00,48.0,42.1,29.56,SSW,202,0.0,0.0,80,0.00,,,0.00,WeatherDisplay:10.37,2013-10-23 13:35:00,
2013-10-23 09:40:00,48.7,43.2,29.56,South,180,0.0,0.0,81,0.00,,,0.00,WeatherDisplay:10.37,2013-10-23 13:40:00,
2013-10-23 09:45:00,49.3,43.7,29.56,SSE,158,0.0,0.0,81,0.00,,,0.00,WeatherDisplay:10.37,2013-10-23 13:45:00,
2013-10-23 09:50:00,49.6,44.0,29.56,SSW,202,0.0,0.0,81,0.00,,,0.00,WeatherDisplay:10.37,2013-10-23 13:50:00,
2013-10-23 09:55:00,50.2,44.6,29.56,SSW,202,0.0,0.0,81,0.00,,,0.00,WeatherDisplay:10.37,2013-10-23 13:55:00,
2013-10-23 10:00:00,50.5,44.6,29.57,SW,226,0.0,0.0,80,0.00,,,0.00,WeatherDisplay:10.37,2013-10-23 14:00:00,
2013-10-23 10:05:00,51.1,44.5,29.56,SSE,158,1.0,6.3,78,0.00,,,0.00,WeatherDisplay:10.37,2013-10-23 14:05:00,
2013-10-23 10:10:00,51.6,42.9,29.56,ESE,112,0.0,0.0,72,0.00,,,0.00,WeatherDisplay:10.37,2013-10-23 14:10:00,
2013-10-23 10:15:00,51.8,42.3,29.57,SE,135,0.0,0.0,70,0.00,,,0.00,WeatherDisplay:10.37,2013-10-23 14:15:00,
2013-10-23 10:20:00,52.3,41.7,29.57,South,180,0.0,0.0,67,0.00,,,0.00,WeatherDisplay:10.37,2013-10-23 14:20:00,
2013-10-23 10:25:00,52.5,40.3,29.57,SSW,202,0.0,3.5,63,0.00,,,0.00,WeatherDisplay:10.37,2013-10-23 14:25:00,
2013-10-23 10:30:00,53.2,41.4,29.56,South,180,0.2,2.3,64,0.00,,,0.00,WeatherDisplay:10.37,2013-10-23 14:30:00,
2013-10-23 10:35:00,53.4,40.7,29.56,NNW,338,0.0,0.0,62,0.00,,,0.00,WeatherDisplay:10.37,2013-10-23 14:35:00,
2013-10-23 10:40:00,54.1,40.6,29.56,NE,45,0.8,6.9,60,0.00,,,0.00,WeatherDisplay:10.37,2013-10-23 14:40:00,
2013-10-23 10:45:00,54.7,41.1,29.57,SW,225,0.0,0.0,60,0.00,,,0.00,WeatherDisplay:10.37,2013-10-23 14:45:00,
2013-10-23 10:50:00,55.0,40.1,29.56,ENE,68,0.3,2.3,57,0.00,,,0.00,WeatherDisplay:10.37,2013-10-23 14:50:00,
2013-10-23 10:55:00,55.6,40.6,29.56,SSW,202,0.0,0.0,57,0.00,,,0.00,WeatherDisplay:10.37,2013-10-23 14:55:00,
2013-10-23 11:00:00,56.1,40.6,29.56,NE,45,0.0,0.0,56,0.00,,,0.00,WeatherDisplay:10.37,2013-10-23 15:00:00,
2013-10-23 11:05:00,57.0,41.0,29.56,SSE,158,0.0,0.0,55,0.00,,,0.00,WeatherDisplay:10.37,2013-10-23 15:05:00,
2013-10-23 11:10:00,57.9,42.3,29.56,SSW,202,0.0,0.0,56,0.00,,,0.00,WeatherDisplay:10.37,2013-10-23 15:10:00,
2013-10-23 11:15:00,58.6,41.1,29.57,ESE,112,0.0,0.0,52,0.00,,,0.00,WeatherDisplay:10.37,2013-10-23 15:15:00,
2013-10-23 11:20:00,59.4,41.2,29.56,ESE,112,0.3,5.8,51,0.00,,,0.00,WeatherDisplay:10.37,2013-10-23 15:20:00,
2013-10-23 11:25:00,59.7,41.0,29.56,WSW,248,0.0,0.0,50,0.00,,,0.00,WeatherDisplay:10.37,2013-10-23 15:25:00,
2013-10-23 11:30:00,60.4,41.7,29.56,NNE,22,0.4,3.5,50,0.00,,,0.00,WeatherDisplay:10.37,2013-10-23 15:30:00,
2013-10-23 11:35:00,61.0,40.6,29.57,East,90,3.2,13.8,47,0.00,,,0.00,WeatherDisplay:10.37,2013-10-23 15:35:00,
2013-10-23 11:40:00,61.2,40.2,29.57,South,180,0.0,0.0,46,0.00,,,0.00,WeatherDisplay:10.37,2013-10-23 15:40:00,
2013-10-23 11:45:00,61.9,42.0,29.57,South,180,0.0,0.0,48,0.00,,,0.00,WeatherDisplay:10.37,2013-10-23 15:45:00,
2013-10-23 11:50:00,63.0,42.4,29.56,South,180,0.0,0.0,47,0.00,,,0.00,WeatherDisplay:10.37,2013-10-23 15:50:00,
2013-10-23 11:56:00,63.5,41.8,29.56,WSW,248,0.0,5.4,45,0.00,,,0.00,WeatherDisplay:10.37,2013-10-23 15:56:00,
2013-10-23 12:01:00,64.0,42.8,29.57,SSE,158,0.1,3.5,46,0.00,,,0.00,WeatherDisplay:10.37,2013-10-23 16:01:00,
2013-10-23 12:06:00,64.6,41.6,29.57,WNW,292,3.6,5.8,43,0.00,,,0.00,WeatherDisplay:10.37,2013-10-23 16:06:00,
2013-10-23 12:11:00,64.4,41.4,29.57,SSW,202,0.5,2.3,43,0.00,,,0.00,WeatherDisplay:10.37,2013-10-23 16:11:00,
2013-10-23 12:16:00,64.9,43.1,29.57,SW,225,1.2,4.6,45,0.00,,,0.00,WeatherDisplay:10.37,2013-10-23 16:16:00,
2013-10-23 12:21:00,65.5,42.4,29.57,SE,135,0.0,0.0,43,0.00,,,0.00,WeatherDisplay:10.37,2013-10-23 16:21:00,
2013-10-23 12:26:00,65.8,41.5,29.57,South,180,0.0,0.0,41,0.00,,,0.00,WeatherDisplay:10.37,2013-10-23 16:26:00,
2013-10-23 12:31:00,65.8,41.5,29.57,SE,135,0.0,0.0,41,0.00,,,0.00,WeatherDisplay:10.37,2013-10-23 16:31:00,
2013-10-23 12:36:00,66.2,42.4,29.57,SSW,202,0.3,1.1,42,0.00,,,0.00,WeatherDisplay:10.37,2013-10-23 16:36:00,
2013-10-23 12:41:00,66.6,42.7,29.57,South,180,1.1,4.6,42,0.00,,,0.00,WeatherDisplay:10.37,2013-10-23 16:41:00,
2013-10-23 12:46:00,67.1,42.6,29.57,SE,135,0.0,0.0,41,0.00,,,0.00,WeatherDisplay:10.37,2013-10-23 16:46:00,
2013-10-23 12:51:00,67.6,42.4,29.57,SSW,202,0.4,1.1,40,0.00,,,0.00,WeatherDisplay:10.37,2013-10-23 16:51:00,
2013-10-23 12:56:00,67.8,41.9,29.57,ENE,68,0.0,0.0,39,0.00,,,0.00,WeatherDisplay:10.37,2013-10-23 16:56:00,
2013-10-23 13:01:00,68.2,42.3,29.57,SW,225,0.0,0.0,39,0.00,,,0.00,WeatherDisplay:10.37,2013-10-23 17:01:00,
2013-10-23 13:06:00,68.4,43.1,29.57,SSE,158,0.0,0.0,40,0.00,,,0.00,WeatherDisplay:10.37,2013-10-23 17:06:00,
2013-10-23 13:11:00,68.7,42.1,29.58,South,180,1.3,10.9,38,0.00,,,0.00,WeatherDisplay:10.37,2013-10-23 17:11:00,
2013-10-23 13:16:00,68.4,41.8,29.57,SSW,202,0.0,0.0,38,0.00,,,0.00,WeatherDisplay:10.37,2013-10-23 17:16:00,
2013-10-23 13:21:00,68.4,41.8,29.58,SSE,158,0.7,5.8,38,0.00,,,0.00,WeatherDisplay:10.37,2013-10-23 17:21:00,
2013-10-23 13:26:00,68.7,42.1,29.58,SSE,158,0.0,0.0,38,0.00,,,0.00,WeatherDisplay:10.37,2013-10-23 17:26:00,
2013-10-23 13:31:00,69.1,43.7,29.58,SSE,158,0.0,0.0,40,0.00,,,0.00,WeatherDisplay:10.37,2013-10-23 17:31:00,
2013-10-23 13:36:00,69.6,44.2,29.58,South,180,0.0,0.0,40,0.00,,,0.00,WeatherDisplay:10.37,2013-10-23 17:36:00,
2013-10-23 13:41:00,70.2,44.0,29.59,SE,135,0.0,4.6,39,0.00,,,0.00,WeatherDisplay:10.37,2013-10-23 17:41:00,
2013-10-23 13:46:00,70.3,44.2,29.58,South,180,0.8,2.3,39,0.00,,,0.00,WeatherDisplay:10.37,2013-10-23 17:46:00,
2013-10-23 13:51:00,70.3,42.8,29.58,SW,225,0.0,3.5,37,0.00,,,0.00,WeatherDisplay:10.37,2013-10-23 17:51:00,
2013-10-23 13:56:00,70.3,43.5,29.59,SW,225,0.0,0.0,38,0.00,,,0.00,WeatherDisplay:10.37,2013-10-23 17:56:00,
2013-10-23 14:01:00,70.0,42.5,29.58,South,180,0.7,3.5,37,0.00,,,0.00,WeatherDisplay:10.37,2013-10-23 18:01:00,
2013-10-23 14:06:00,69.6,42.2,29.59,SW,225,0.0,0.0,37,0.00,,,0.00,WeatherDisplay:10.37,2013-10-23 18:06:00,
2013-10-23 14:11:00,69.4,42.7,29.59,SSW,202,0.0,0.0,38,0.00,,,0.00,WeatherDisplay:10.37,2013-10-23 18:11:00,
2013-10-23 14:16:00,69.1,41.7,29.58,South,180,0.0,0.0,37,0.00,,,0.00,WeatherDisplay:10.37,2013-10-23 18:16:00,
2013-10-23 14:21:00,68.9,41.5,29.59,West,270,0.5,6.9,37,0.00,,,0.00,WeatherDisplay:10.37,2013-10-23 18:21:00,
2013-10-23 14:26:00,69.1,41.0,29.59,South,180,0.4,0.0,36,0.00,,,0.00,WeatherDisplay:10.37,2013-10-23 18:26:00,
2013-10-23 14:31:00,69.1,41.0,29.58,SSW,202,0.7,4.5,36,0.00,,,0.00,WeatherDisplay:10.37,2013-10-23 18:31:00,
2013-10-23 14:36:00,69.4,42.0,29.59,WNW,292,0.0,5.8,37,0.00,,,0.00,WeatherDisplay:10.37,2013-10-23 18:36:00,
2013-10-23 14:41:00,69.4,42.0,29.59,SSW,202,1.5,4.6,37,0.00,,,0.00,WeatherDisplay:10.37,2013-10-23 18:41:00,
2013-10-23 14:46:00,70.0,42.5,29.59,SW,225,0.3,0.0,37,0.00,,,0.00,WeatherDisplay:10.37,2013-10-23 18:46:00,
2013-10-23 14:51:00,69.6,41.5,29.59,SSW,202,0.2,2.3,36,0.00,,,0.00,WeatherDisplay:10.37,2013-10-23 18:51:00,
2013-10-23 14:56:00,69.4,40.6,29.60,SSE,158,0.8,4.6,35,0.00,,,0.00,WeatherDisplay:10.37,2013-10-23 18:56:00,
2013-10-23 15:01:00,68.7,39.9,29.60,SE,135,0.0,0.0,35,0.00,,,0.00,WeatherDisplay:10.37,2013-10-23 19:01:00,
2013-10-23 15:06:00,68.4,40.4,29.60,SW,225,0.0,0.0,36,0.00,,,0.00,WeatherDisplay:10.37,2013-10-23 19:06:00,
2013-10-23 15:11:00,68.0,40.7,29.60,SW,225,0.3,2.3,37,0.00,,,0.00,WeatherDisplay:10.37,2013-10-23 19:11:00,
2013-10-23 15:16:00,67.8,39.9,29.60,ENE,68,0.2,4.6,36,0.00,,,0.00,WeatherDisplay:10.37,2013-10-23 19:16:00,
2013-10-23 15:21:00,66.9,38.4,29.60,SSE,158,0.0,0.0,35,0.00,,,0.00,WeatherDisplay:10.37,2013-10-23 19:21:00,
2013-10-23 15:26:00,66.4,38.6,29.60,South,180,0.0,0.0,36,0.00,,,0.00,WeatherDisplay:10.37,2013-10-23 19:26:00,
2013-10-23 15:31:00,66.0,38.3,29.60,ESE,112,0.6,6.9,36,0.00,,,0.00,WeatherDisplay:10.37,2013-10-23 19:31:00,
2013-10-23 15:36:00,65.7,38.0,29.61,SE,135,0.0,0.0,36,0.00,,,0.00,WeatherDisplay:10.37,2013-10-23 19:36:00,
2013-10-23 15:41:00,65.1,38.2,29.61,SE,135,0.0,0.0,37,0.00,,,0.00,WeatherDisplay:10.37,2013-10-23 19:41:00,
2013-10-23 15:46:00,64.9,38.0,29.61,SSW,202,1.2,4.2,37,0.00,,,0.00,WeatherDisplay:10.37,2013-10-23 19:46:00,
2013-10-23 15:51:00,64.8,37.9,29.62,South,180,0.2,1.1,37,0.00,,,0.00,WeatherDisplay:10.37,2013-10-23 19:51:00,
2013-10-23 15:56:00,64.4,38.2,29.62,SSW,202,0.0,0.0,38,0.00,,,0.00,WeatherDisplay:10.37,2013-10-23 19:56:00,
2013-10-23 16:01:00,64.0,37.9,29.62,SSW,202,0.5,1.1,38,0.00,,,0.00,WeatherDisplay:10.37,2013-10-23 20:01:00,
2013-10-23 16:06:00,63.7,37.6,29.63,NE,45,0.0,0.0,38,0.00,,,0.00,WeatherDisplay:10.37,2013-10-23 20:06:00,
2013-10-23 16:11:00,63.1,37.1,29.63,South,180,0.0,0.0,38,0.00,,,0.00,WeatherDisplay:10.37,2013-10-23 20:11:00,
2013-10-23 16:16:00,62.6,37.3,29.63,South,180,2.1,5.8,39,0.00,,,0.00,WeatherDisplay:10.37,2013-10-23 20:16:00,
2013-10-23 16:21:00,62.4,37.1,29.63,ESE,112,0.3,3.5,39,0.00,,,0.00,WeatherDisplay:10.37,2013-10-23 20:21:00,
2013-10-23 16:26:00,61.9,36.6,29.63,SSE,158,0.0,3.5,39,0.00,,,0.00,WeatherDisplay:10.37,2013-10-23 20:26:00,
2013-10-23 16:31:00,61.3,36.2,29.64,SSW,202,0.0,0.0,39,0.00,,,0.00,WeatherDisplay:10.37,2013-10-23 20:31:00,
2013-10-23 16:36:00,61.0,36.5,29.64,South,180,0.0,0.0,40,0.00,,,0.00,WeatherDisplay:10.37,2013-10-23 20:36:00,
2013-10-23 16:41:00,60.6,36.1,29.64,South,180,0.0,0.0,40,0.00,,,0.00,WeatherDisplay:10.37,2013-10-23 20:41:00,
2013-10-23 16:46:00,60.1,36.3,29.64,SSE,158,0.0,0.0,41,0.00,,,0.00,WeatherDisplay:10.37,2013-10-23 20:46:00,
2013-10-23 16:51:00,59.7,36.0,29.64,SSE,158,0.1,3.5,41,0.00,,,0.00,WeatherDisplay:10.37,2013-10-23 20:51:00,
2013-10-23 16:56:00,59.2,36.1,29.64,NE,45,0.0,0.0,42,0.00,,,0.00,WeatherDisplay:10.37,2013-10-23 20:56:00,
2013-10-23 17:01:00,58.6,35.6,29.64,SE,135,0.5,5.8,42,0.00,,,0.00,WeatherDisplay:10.37,2013-10-23 21:01:00,
2013-10-23 17:06:00,58.1,35.1,29.65,South,180,0.5,2.3,42,0.00,,,0.00,WeatherDisplay:10.37,2013-10-23 21:06:00,
2013-10-23 17:11:00,57.7,35.4,29.65,SSE,158,2.2,6.9,43,0.00,,,0.00,WeatherDisplay:10.37,2013-10-23 21:11:00,
2013-10-23 17:16:00,57.0,34.7,29.66,WSW,248,0.4,3.4,43,0.00,,,0.00,WeatherDisplay:10.37,2013-10-23 21:16:00,
2013-10-23 17:21:00,56.5,34.8,29.66,South,180,0.0,0.0,44,0.00,,,0.00,WeatherDisplay:10.37,2013-10-23 21:21:00,
2013-10-23 17:26:00,56.1,35.1,29.66,SSW,202,0.0,0.0,45,0.00,,,0.00,WeatherDisplay:10.37,2013-10-23 21:26:00,
2013-10-23 17:31:00,55.6,34.6,29.66,SSE,158,0.0,0.0,45,0.00,,,0.00,WeatherDisplay:10.37,2013-10-23 21:31:00,
2013-10-23 17:36:00,55.2,34.2,29.67,South,180,0.0,0.0,45,0.00,,,0.00,WeatherDisplay:10.37,2013-10-23 21:36:00,
2013-10-23 17:41:00,54.5,33.6,29.67,SE,135,0.0,0.0,45,0.00,,,0.00,WeatherDisplay:10.37,2013-10-23 21:41:00,
2013-10-23 17:46:00,54.1,33.2,29.67,South,180,0.0,0.0,45,0.00,,,0.00,WeatherDisplay:10.37,2013-10-23 21:46:00,
2013-10-23 17:51:00,53.8,33.5,29.68,SE,135,0.0,0.0,46,0.00,,,0.00,WeatherDisplay:10.37,2013-10-23 21:51:00,
2013-10-23 17:56:00,53.2,32.4,29.68,South,180,0.0,0.0,45,0.00,,,0.00,WeatherDisplay:10.37,2013-10-23 21:56:00,
2013-10-23 18:01:00,52.7,32.5,29.68,SSE,158,0.0,0.0,46,0.00,,,0.00,WeatherDisplay:10.37,2013-10-23 22:01:00,
2013-10-23 18:06:00,52.3,32.7,29.68,SE,135,0.0,0.0,47,0.00,,,0.00,WeatherDisplay:10.37,2013-10-23 22:06:00,
2013-10-23 18:11:00,51.6,32.0,29.68,South,180,0.0,0.0,47,0.00,,,0.00,WeatherDisplay:10.37,2013-10-23 22:11:00,
2013-10-23 18:16:00,51.1,32.1,29.68,SSE,158,0.0,0.0,48,0.00,,,0.00,WeatherDisplay:10.37,2013-10-23 22:16:00,
2013-10-23 18:21:00,50.5,31.6,29.68,SSE,158,0.0,0.0,48,0.00,,,0.00,WeatherDisplay:10.37,2013-10-23 22:21:00,
2013-10-23 18:26:00,49.8,31.4,29.68,South,180,0.0,0.0,49,0.00,,,0.00,WeatherDisplay:10.37,2013-10-23 22:26:00,
2013-10-23 18:31:00,49.3,30.9,29.69,SSE,158,0.0,0.0,49,0.00,,,0.00,WeatherDisplay:10.37,2013-10-23 22:31:00,
2013-10-23 18:36:00,48.7,30.9,29.69,SSE,158,0.0,0.0,50,0.00,,,0.00,WeatherDisplay:10.37,2013-10-23 22:36:00,
2013-10-23 18:41:00,48.4,30.6,29.70,SSE,158,0.0,0.0,50,0.00,,,0.00,WeatherDisplay:10.37,2013-10-23 22:41:00,
2013-10-23 18:46:00,48.0,30.7,29.70,SSE,158,0.0,0.0,51,0.00,,,0.00,WeatherDisplay:10.37,2013-10-23 22:46:00,
2013-10-23 18:51:00,47.8,30.6,29.70,SSE,158,0.0,0.0,51,0.00,,,0.00,WeatherDisplay:10.37,2013-10-23 22:51:00,
2013-10-23 18:56:00,47.5,30.7,29.71,SE,135,0.0,0.0,52,0.00,,,0.00,WeatherDisplay:10.37,2013-10-23 22:56:00,
2013-10-23 19:01:00,47.1,30.9,29.71,SE,135,0.0,0.0,53,0.00,,,0.00,WeatherDisplay:10.37,2013-10-23 23:01:00,
2013-10-23 19:06:00,46.6,30.3,29.71,ENE,68,0.0,0.0,53,0.00,,,0.00,WeatherDisplay:10.37,2013-10-23 23:06:00,
2013-10-23 19:11:00,46.2,30.0,29.71,SE,135,0.0,0.0,53,0.00,,,0.00,WeatherDisplay:10.37,2013-10-23 23:11:00,
2013-10-23 19:16:00,45.9,30.1,29.71,SSE,158,0.0,0.0,54,0.00,,,0.00,WeatherDisplay:10.37,2013-10-23 23:16:00,
2013-10-23 19:21:00,45.3,29.6,29.72,SSW,202,0.0,0.0,54,0.00,,,0.00,WeatherDisplay:10.37,2013-10-23 23:21:00,
2013-10-23 19:26:00,45.1,29.9,29.71,SE,135,0.0,0.0,55,0.00,,,0.00,WeatherDisplay:10.37,2013-10-23 23:26:00,
2013-10-23 19:31:00,45.0,29.8,29.72,South,180,0.0,4.6,55,0.00,,,0.00,WeatherDisplay:10.37,2013-10-23 23:31:00,
2013-10-23 19:36:00,44.6,29.4,29.72,South,180,0.0,0.0,55,0.00,,,0.00,WeatherDisplay:10.37,2013-10-23 23:36:00,
2013-10-23 19:41:00,44.4,29.7,29.72,South,180,0.0,0.0,56,0.00,,,0.00,WeatherDisplay:10.37,2013-10-23 23:41:00,
2013-10-23 19:46:00,44.2,29.5,29.72,WSW,248,0.0,0.0,56,0.00,,,0.00,WeatherDisplay:10.37,2013-10-23 23:46:00,
2013-10-23 19:51:00,44.2,29.5,29.72,South,180,0.0,0.0,56,0.00,,,0.00,WeatherDisplay:10.37,2013-10-23 23:51:00,
2013-10-23 19:56:00,43.9,29.6,29.73,SE,135,0.3,0.0,57,0.00,,,0.00,WeatherDisplay:10.37,2013-10-23 23:56:00,
2013-10-23 20:01:00,43.7,29.5,29.73,SSE,158,0.0,0.0,57,0.00,,,0.00,WeatherDisplay:10.37,2013-10-24 00:01:00,
2013-10-23 20:06:00,43.5,29.3,29.72,SSE,158,0.0,5.8,57,0.00,,,0.00,WeatherDisplay:10.37,2013-10-24 00:06:00,
2013-10-23 20:11:00,43.5,29.7,29.73,SSW,202,0.0,0.0,58,0.00,,,0.00,WeatherDisplay:10.37,2013-10-24 00:11:00,
2013-10-23 20:16:00,43.3,29.5,29.73,SSE,158,0.0,3.5,58,0.00,,,0.00,WeatherDisplay:10.37,2013-10-24 00:16:00,
2013-10-23 20:21:00,43.2,29.4,29.73,SW,225,0.0,2.3,58,0.00,,,0.00,WeatherDisplay:10.37,2013-10-24 00:21:00,
2013-10-23 20:26:00,43.0,29.2,29.73,SSE,158,0.0,0.0,58,0.00,,,0.00,WeatherDisplay:10.37,2013-10-24 00:26:00,
2013-10-23 20:31:00,43.0,29.2,29.73,SSW,202,0.0,0.0,58,0.00,,,0.00,WeatherDisplay:10.37,2013-10-24 00:31:00,
2013-10-23 20:36:00,43.0,29.2,29.73,SE,135,0.0,4.6,58,0.00,,,0.00,WeatherDisplay:10.37,2013-10-24 00:36:00,
2013-10-23 20:41:00,42.6,29.3,29.74,SSE,158,0.0,0.0,59,0.00,,,0.00,WeatherDisplay:10.37,2013-10-24 00:41:00,
2013-10-23 20:46:00,42.6,29.7,29.74,SW,225,0.0,3.5,60,0.00,,,0.00,WeatherDisplay:10.37,2013-10-24 00:46:00,
2013-10-23 20:51:00,42.6,29.3,29.75,ESE,112,0.0,0.0,59,0.00,,,0.00,WeatherDisplay:10.37,2013-10-24 00:51:00,
2013-10-23 20:56:00,42.4,29.1,29.74,SSE,158,0.0,0.0,59,0.00,,,0.00,WeatherDisplay:10.37,2013-10-24 00:56:00,
2013-10-23 21:01:00,42.3,28.9,29.75,South,180,0.0,0.0,59,0.00,,,0.00,WeatherDisplay:10.37,2013-10-24 01:01:00,
2013-10-23 21:06:00,42.1,29.2,29.75,ENE,68,2.0,8.1,60,0.00,,,0.00,WeatherDisplay:10.37,2013-10-24 01:06:00,
2013-10-23 21:11:00,42.1,28.8,29.74,SE,135,0.0,0.0,59,0.00,,,0.00,WeatherDisplay:10.37,2013-10-24 01:11:00,
2013-10-23 21:16:00,41.9,29.0,29.75,SSE,158,0.2,1.1,60,0.00,,,0.00,WeatherDisplay:10.37,2013-10-24 01:16:00,
2013-10-23 21:21:00,41.9,29.0,29.74,SSW,202,0.0,0.0,60,0.00,,,0.00,WeatherDisplay:10.37,2013-10-24 01:21:00,
2013-10-23 21:26:00,41.9,29.0,29.75,SSW,202,0.0,0.0,60,0.00,,,0.00,WeatherDisplay:10.37,2013-10-24 01:26:00,
2013-10-23 21:31:00,41.9,29.0,29.75,SSW,202,0.0,0.0,60,0.00,,,0.00,WeatherDisplay:10.37,2013-10-24 01:31:00,
2013-10-23 21:36:00,41.9,29.4,29.75,SW,225,0.0,0.0,61,0.00,,,0.00,WeatherDisplay:10.37,2013-10-24 01:36:00,
2013-10-23 21:41:00,41.7,29.3,29.76,SW,225,0.0,0.0,61,0.00,,,0.00,WeatherDisplay:10.37,2013-10-24 01:41:00,
2013-10-23 21:46:00,41.7,29.3,29.76,SW,225,0.0,0.0,61,0.00,,,0.00,WeatherDisplay:10.37,2013-10-24 01:46:00,
2013-10-23 21:51:00,41.5,29.1,29.76,SW,225,0.0,0.0,61,0.00,,,0.00,WeatherDisplay:10.37,2013-10-24 01:51:00,
2013-10-23 21:56:00,41.4,28.9,29.77,SW,225,0.0,0.0,61,0.00,,,0.00,WeatherDisplay:10.37,2013-10-24 01:56:00,
2013-10-23 22:01:00,41.0,28.6,29.77,South,180,0.0,0.0,61,0.00,,,0.00,WeatherDisplay:10.37,2013-10-24 02:01:00,
2013-10-23 22:06:00,41.0,28.6,29.76,ENE,68,0.0,0.0,61,0.00,,,0.00,WeatherDisplay:10.37,2013-10-24 02:06:00,
2013-10-23 22:11:00,41.0,28.6,29.76,SW,225,0.0,0.0,61,0.00,,,0.00,WeatherDisplay:10.37,2013-10-24 02:11:00,
2013-10-23 22:16:00,41.0,28.6,29.76,SW,225,0.0,0.0,61,0.00,,,0.00,WeatherDisplay:10.37,2013-10-24 02:16:00,
2013-10-23 22:21:00,41.0,28.6,29.77,SE,135,0.0,4.6,61,0.00,,,0.00,WeatherDisplay:10.37,2013-10-24 02:21:00,
2013-10-23 22:26:00,41.0,28.6,29.77,NE,45,0.0,0.0,61,0.00,,,0.00,WeatherDisplay:10.37,2013-10-24 02:26:00,
2013-10-23 22:31:00,40.8,28.4,29.77,NE,45,0.0,0.0,61,0.00,,,0.00,WeatherDisplay:10.37,2013-10-24 02:31:00,
2013-10-23 22:36:00,40.6,28.6,29.76,ESE,112,0.0,0.0,62,0.00,,,0.00,WeatherDisplay:10.37,2013-10-24 02:36:00,
2013-10-23 22:41:00,40.3,28.3,29.76,NNE,22,0.0,0.0,62,0.00,,,0.00,WeatherDisplay:10.37,2013-10-24 02:41:00,
2013-10-23 22:46:00,40.3,28.3,29.76,NNW,338,0.0,0.0,62,0.00,,,0.00,WeatherDisplay:10.37,2013-10-24 02:46:00,
2013-10-23 22:51:00,40.1,28.5,29.77,North,0,0.0,0.0,63,0.00,,,0.00,WeatherDisplay:10.37,2013-10-24 02:51:00,
2013-10-23 22:56:00,40.1,28.5,29.77,North,0,0.0,0.0,63,0.00,,,0.00,WeatherDisplay:10.37,2013-10-24 02:56:00,
2013-10-23 23:01:00,39.9,28.3,29.77,North,0,0.0,0.0,63,0.00,,,0.00,WeatherDisplay:10.37,2013-10-24 03:01:00,
2013-10-23 23:06:00,39.9,28.3,29.77,North,0,0.0,0.0,63,0.00,,,0.00,WeatherDisplay:10.37,2013-10-24 03:06:00,
2013-10-23 23:11:00,39.7,28.2,29.77,North,0,0.0,0.0,63,0.00,,,0.00,WeatherDisplay:10.37,2013-10-24 03:11:00,
2013-10-23 23:16:00,39.2,28.0,29.77,North,0,0.0,0.0,64,0.00,,,0.00,WeatherDisplay:10.37,2013-10-24 03:16:00,
2013-10-23 23:21:00,38.8,27.7,29.77,North,0,0.0,0.0,64,0.00,,,0.00,WeatherDisplay:10.37,2013-10-24 03:21:00,
2013-10-23 23:26:00,38.5,27.4,29.77,North,0,0.0,0.0,64,0.00,,,0.00,WeatherDisplay:10.37,2013-10-24 03:26:00,
2013-10-23 23:31:00,38.3,27.2,29.77,North,0,0.0,0.0,64,0.00,,,0.00,WeatherDisplay:10.37,2013-10-24 03:31:00,
2013-10-23 23:36:00,38.1,27.4,29.77,North,0,0.0,0.0,65,0.00,,,0.00,WeatherDisplay:10.37,2013-10-24 03:36:00,
2013-10-23 23:41:00,37.9,27.2,29.77,North,0,0.0,0.0,65,0.00,,,0.00,WeatherDisplay:10.37,2013-10-24 03:41:00,
2013-10-23 23:46:00,37.9,27.6,29.77,North,0,0.0,0.0,66,0.00,,,0.00,WeatherDisplay:10.37,2013-10-24 03:46:00,
2013-10-23 23:51:00,37.8,27.4,29.77,North,0,0.0,0.0,66,0.00,,,0.00,WeatherDisplay:10.37,2013-10-24 03:51:00,
2013-10-23 23:56:00,37.8,27.4,29.77,North,0,0.0,0.0,66,0.00,,,0.00,WeatherDisplay:10.37,2013-10-24 03:56:00,